createdAt,value
2022-08-19T00:01:31.522Z,93638.88
2022-08-19T00:03:59.856Z,93635.81
2022-08-19T00:06:28.033Z,93647.63
2022-08-19T00:08:55.052Z,93647.38
2022-08-19T00:11:25.990Z,93652.63
2022-08-19T00:13:53.713Z,93659.19
2022-08-19T00:16:25.227Z,93667.06
2022-08-19T00:18:53.170Z,93665.75
2022-08-19T00:21:19.985Z,93672.03
2022-08-19T00:23:47.144Z,93668.13
2022-08-19T00:26:14.154Z,93666.25
2022-08-19T00:28:42.224Z,93651.06
2022-08-19T00:31:09.875Z,93647.91
2022-08-19T00:33:37.063Z,93640.00
2022-08-19T00:36:07.367Z,93644.03
2022-08-19T00:38:37.813Z,93652.19
2022-08-19T00:41:06.492Z,93645.84
2022-08-19T00:43:33.625Z,93660.59
2022-08-19T00:46:00.494Z,93666.31
2022-08-19T00:48:27.602Z,93676.28
2022-08-19T00:50:55.372Z,93678.38
2022-08-19T00:53:24.974Z,93682.56
2022-08-19T00:55:54.932Z,93692.56
2022-08-19T00:58:24.442Z,93693.84
2022-08-19T01:00:51.170Z,93689.41
2022-08-19T01:03:20.133Z,93687.81
2022-08-19T01:05:49.122Z,93688.34
2022-08-19T01:08:17.470Z,93685.72
2022-08-19T01:10:54.551Z,93686.28
2022-08-19T01:13:25.050Z,93672.09
2022-08-19T01:15:56.733Z,93641.66
2022-08-19T01:18:24.523Z,93600.47
2022-08-19T01:20:52.333Z,93579.22
2022-08-19T01:23:19.610Z,93587.84
2022-08-19T01:25:52.612Z,93610.22
2022-08-19T01:28:39.056Z,93628.06
2022-08-19T01:31:08.773Z,93640.09
2022-08-19T01:33:35.723Z,93644.75
2022-08-19T01:36:22.160Z,93633.25
2022-08-19T01:38:50.493Z,93629.59
2022-08-19T01:41:18.474Z,93619.63
2022-08-19T01:44:10.066Z,93599.69
2022-08-19T01:46:33.296Z,93585.00
2022-08-19T01:49:01.054Z,93593.38
2022-08-19T01:51:28.623Z,93594.19
2022-08-19T01:53:55.859Z,93591.34
2022-08-19T01:56:22.593Z,93587.69
2022-08-19T01:58:54.212Z,93599.97
2022-08-19T02:01:21.156Z,93600.78
2022-08-19T02:03:48.007Z,93606.56
2022-08-19T02:06:15.382Z,93601.84
2022-08-19T02:08:42.242Z,93609.13
2022-08-19T02:11:09.063Z,93612.81
2022-08-19T02:13:36.063Z,93626.47
2022-08-19T02:16:04.376Z,93633.25
2022-08-19T02:18:31.363Z,93624.41
2022-08-19T02:20:58.102Z,93607.88
2022-08-19T02:23:25.012Z,93597.38
2022-08-19T02:25:53.333Z,93585.00
2022-08-19T02:28:20.082Z,93577.66
2022-08-19T02:30:47.980Z,93567.16
2022-08-19T02:33:14.822Z,93571.09
2022-08-19T02:35:48.235Z,93573.72
2022-08-19T02:38:27.700Z,93569.59
2022-08-19T02:41:03.373Z,93554.19
2022-08-19T02:43:33.878Z,93563.63
2022-08-19T02:46:01.683Z,93582.19
2022-08-19T02:48:28.742Z,93579.31
2022-08-19T02:50:58.248Z,93585.06
2022-08-19T02:53:27.945Z,93595.53
2022-08-19T02:55:55.296Z,93598.94
2022-08-19T02:58:22.770Z,93603.41
2022-08-19T03:00:52.958Z,93604.22
2022-08-19T03:03:20.222Z,93590.31
2022-08-19T03:05:56.812Z,93590.03
2022-08-19T03:08:25.390Z,93591.13
2022-08-19T03:10:54.132Z,93583.75
2022-08-19T03:13:21.143Z,93593.47
2022-08-19T03:15:48.752Z,93585.94
2022-08-19T03:18:17.909Z,93601.16
2022-08-19T03:20:47.092Z,93612.72
2022-08-19T03:23:14.942Z,93617.41
2022-08-19T03:25:44.235Z,93648.06
2022-08-19T03:28:12.994Z,93662.19
2022-08-19T03:30:41.984Z,93677.91
2022-08-19T03:33:17.952Z,93689.44
2022-08-19T03:35:46.209Z,93688.94
2022-08-19T03:38:13.012Z,93687.09
2022-08-19T03:40:39.742Z,93698.31
2022-08-19T03:43:07.115Z,93708.59
2022-08-19T03:45:33.883Z,93730.91
2022-08-19T03:48:00.705Z,93748.22
2022-08-19T03:50:27.532Z,93769.16
2022-08-19T03:52:54.438Z,93786.75
2022-08-19T03:55:21.392Z,93811.94
2022-08-19T03:57:49.684Z,93816.94
2022-08-19T04:00:16.983Z,93817.69
2022-08-19T04:02:56.550Z,93841.06
2022-08-19T04:05:29.495Z,93815.34
2022-08-19T04:08:00.326Z,93796.72
2022-08-19T04:10:29.216Z,93779.69
2022-08-19T04:12:56.070Z,93765.53
2022-08-19T04:15:22.827Z,93762.38
2022-08-19T04:17:49.602Z,93748.75
2022-08-19T04:20:16.505Z,93764.47
2022-08-19T04:22:43.222Z,93754.81
2022-08-19T04:25:10.612Z,93763.94
2022-08-19T04:27:37.320Z,93778.91
2022-08-19T04:30:04.932Z,93772.84
2022-08-19T04:32:33.032Z,93765.53
2022-08-19T04:35:02.211Z,93756.09
2022-08-19T04:37:43.293Z,93762.38
2022-08-19T04:40:29.501Z,93764.22
2022-08-19T04:42:57.412Z,93762.66
2022-08-19T04:45:24.312Z,93760.81
2022-08-19T04:47:57.790Z,93761.06
2022-08-19T04:50:27.061Z,93761.59
2022-08-19T04:52:54.433Z,93766.84
2022-08-19T04:55:21.512Z,93758.19
2022-08-19T04:57:48.594Z,93761.59
2022-08-19T05:00:15.853Z,93761.06
2022-08-19T05:02:43.422Z,93764.47
2022-08-19T05:05:10.510Z,93767.09
2022-08-19T05:07:37.655Z,93772.34
2022-08-19T05:10:06.222Z,93762.13
2022-08-19T05:12:32.995Z,93766.53
2022-08-19T05:15:00.163Z,93752.41
2022-08-19T05:17:29.668Z,93739.25
2022-08-19T05:20:17.890Z,93721.91
2022-08-19T05:22:46.316Z,93714.28
2022-08-19T05:25:20.183Z,93720.00
2022-08-19T05:27:47.502Z,93728.22
2022-08-19T05:30:14.633Z,93730.03
2022-08-19T05:32:43.069Z,93721.09
2022-08-19T05:35:10.692Z,93713.94
2022-08-19T05:37:38.062Z,93710.28
2022-08-19T05:40:05.437Z,93721.88
2022-08-19T05:42:32.394Z,93737.38
2022-08-19T05:44:59.273Z,93736.03
2022-08-19T05:47:26.057Z,93717.09
2022-08-19T05:49:52.924Z,93696.09
2022-08-19T05:52:26.101Z,93682.19
2022-08-19T05:54:56.179Z,93677.72
2022-08-19T05:57:24.678Z,93673.94
2022-08-19T05:59:53.159Z,93681.22
2022-08-19T06:02:26.574Z,93692.47
2022-08-19T06:04:53.481Z,93695.44
2022-08-19T06:07:20.598Z,93692.03
2022-08-19T06:09:58.843Z,93701.16
2022-08-19T06:12:31.718Z,93713.78
2022-08-19T06:15:01.366Z,93716.41
2022-08-19T06:17:31.725Z,93721.59
2022-08-19T06:19:59.816Z,93720.75
2022-08-19T06:22:27.257Z,93713.66
2022-08-19T06:24:55.132Z,93719.50
2022-08-19T06:27:22.542Z,93733.72
2022-08-19T06:29:49.703Z,93727.66
2022-08-19T06:32:18.892Z,93742.63
2022-08-19T06:34:45.839Z,93756.28
2022-08-19T06:37:13.265Z,93778.63
2022-08-19T06:39:44.747Z,93785.41
2022-08-19T06:42:17.737Z,93797.22
2022-08-19T06:44:49.010Z,93786.69
2022-08-19T06:47:23.542Z,93803.50
2022-08-19T06:50:01.330Z,93797.47
2022-08-19T06:52:36.408Z,93799.28
2022-08-19T06:55:05.896Z,93786.94
2022-08-19T06:57:34.157Z,93785.09
2022-08-19T07:00:01.307Z,93787.75
2022-08-19T07:02:28.187Z,93778.78
2022-08-19T07:04:56.954Z,93785.66
2022-08-19T07:07:24.290Z,93777.75
2022-08-19T07:10:00.264Z,93768.72
2022-08-19T07:12:33.779Z,93772.94
2022-08-19T07:15:02.537Z,93772.94
2022-08-19T07:17:30.309Z,93779.25
2022-08-19T07:19:57.895Z,93769.78
2022-08-19T07:22:33.787Z,93763.19
2022-08-19T07:25:01.011Z,93767.53
2022-08-19T07:27:27.756Z,93757.91
2022-08-19T07:29:55.890Z,93741.06
2022-08-19T07:32:24.121Z,93756.69
2022-08-19T07:34:51.000Z,93753.28
2022-08-19T07:37:18.178Z,93741.97
2022-08-19T07:39:45.146Z,93740.56
2022-08-19T07:42:13.477Z,93741.16
2022-08-19T07:47:49.048Z,93761.09
2022-08-19T07:50:01.056Z,93756.91
2022-08-19T07:52:27.926Z,93739.78
2022-08-19T07:54:54.736Z,93738.53
2022-08-19T07:57:21.999Z,93755.75
2022-08-19T07:59:48.908Z,93757.75
2022-08-19T08:02:15.738Z,93747.47
2022-08-19T08:05:00.979Z,93737.53
2022-08-19T08:07:46.691Z,93745.06
2022-08-19T08:10:20.945Z,93735.78
2022-08-19T08:13:01.808Z,93714.44
2022-08-19T08:15:38.694Z,93719.31
2022-08-19T08:18:08.820Z,93713.97
2022-08-19T08:20:36.301Z,93703.03
2022-08-19T08:23:22.051Z,93694.72
2022-08-19T08:25:50.089Z,93701.84
2022-08-19T08:28:18.038Z,93700.16
2022-08-19T08:30:47.439Z,93710.03
2022-08-19T08:35:49.142Z,93703.16
2022-08-19T08:38:17.685Z,93701.91
2022-08-19T08:40:51.302Z,93705.75
2022-08-19T08:43:45.641Z,93705.75
2022-08-19T08:46:31.622Z,93691.50
2022-08-19T08:49:06.718Z,93686.47
2022-08-19T08:51:39.310Z,93689.03
2022-08-19T08:54:12.102Z,93692.56
2022-08-19T08:56:40.284Z,93687.06
2022-08-19T08:59:15.870Z,93702.75
2022-08-19T09:01:42.652Z,93701.00
2022-08-19T09:04:09.743Z,93694.66
2022-08-19T09:06:42.092Z,93703.97
2022-08-19T09:09:20.824Z,93713.50
2022-08-19T09:12:15.193Z,93717.28
2022-08-19T09:15:02.241Z,93718.31
2022-08-19T09:17:36.315Z,93708.75
2022-08-19T09:20:17.521Z,93705.63
2022-08-19T09:22:47.593Z,93703.56
2022-08-19T09:25:24.716Z,93708.22
2022-08-19T09:27:55.320Z,93703.94
2022-08-19T09:30:35.811Z,93696.09
2022-08-19T09:33:02.667Z,93701.94
2022-08-19T09:35:30.655Z,93703.97
2022-08-19T09:37:59.790Z,93711.44
2022-08-19T09:40:30.288Z,93703.75
2022-08-19T09:42:58.829Z,93680.75
2022-08-19T09:45:25.720Z,93677.53
2022-08-19T09:47:54.798Z,93664.66
2022-08-19T09:50:23.684Z,93654.81
2022-08-19T09:52:55.040Z,93653.06
2022-08-19T09:55:31.268Z,93664.13
2022-08-19T09:57:59.904Z,93669.59
2022-08-19T10:00:27.849Z,93666.84
2022-08-19T10:02:54.705Z,93659.38
2022-08-19T10:05:42.176Z,93664.00
2022-08-19T10:08:13.826Z,93659.69
2022-08-19T10:10:46.276Z,93645.84
2022-08-19T10:13:15.477Z,93636.47
2022-08-19T10:15:47.619Z,93623.78
2022-08-19T10:18:19.300Z,93632.66
2022-08-19T10:20:51.666Z,93629.50
2022-08-19T10:23:21.072Z,93639.31
2022-08-19T10:25:49.025Z,93623.38
2022-08-19T10:28:16.269Z,93626.03
2022-08-19T10:30:47.658Z,93631.75
2022-08-19T10:33:38.228Z,93623.13
2022-08-19T10:36:19.251Z,93641.47
2022-08-19T10:38:52.327Z,93633.78
2022-08-19T10:41:25.766Z,93627.47
2022-08-19T10:43:57.638Z,93637.81
2022-08-19T10:46:34.293Z,93630.94
2022-08-19T10:49:02.781Z,93639.06
2022-08-19T10:51:48.816Z,93638.91
2022-08-19T10:54:17.139Z,93639.38
2022-08-19T10:56:57.974Z,93634.56
2022-08-19T10:59:33.841Z,93624.25
2022-08-19T11:02:06.354Z,93619.53
2022-08-19T11:04:34.349Z,93627.69
2022-08-19T11:07:03.313Z,93634.38
2022-08-19T11:09:33.880Z,93620.50
2022-08-19T11:12:02.808Z,93616.38
2022-08-19T11:14:32.099Z,93607.81
2022-08-19T11:17:01.850Z,93613.28
2022-08-19T11:19:28.759Z,93616.28
2022-08-19T11:21:57.622Z,93613.09
2022-08-19T11:24:28.540Z,93617.78
2022-08-19T11:27:01.036Z,93611.84
2022-08-19T11:29:29.070Z,93621.28
2022-08-19T11:31:56.323Z,93618.03
2022-08-19T11:34:26.526Z,93613.50
2022-08-19T11:36:58.053Z,93618.50
2022-08-19T11:39:25.260Z,93611.19
2022-08-19T11:41:52.291Z,93607.28
2022-08-19T11:44:19.483Z,93593.34
2022-08-19T11:46:47.495Z,93595.53
2022-08-19T11:49:19.932Z,93598.13
2022-08-19T11:51:47.419Z,93594.06
2022-08-19T11:54:15.732Z,93596.88
2022-08-19T11:56:42.989Z,93592.47
2022-08-19T11:59:14.646Z,93590.69
2022-08-19T12:01:43.744Z,93583.19
2022-08-19T12:04:11.683Z,93589.47
2022-08-19T12:06:40.733Z,93587.09
2022-08-19T12:09:10.501Z,93588.13
2022-08-19T12:11:38.906Z,93595.28
2022-08-19T12:14:06.183Z,93598.41
2022-08-19T12:16:33.817Z,93602.47
2022-08-19T12:19:05.081Z,93608.38
2022-08-19T12:21:34.171Z,93597.38
2022-08-19T12:24:02.322Z,93587.22
2022-08-19T12:26:30.514Z,93585.84
2022-08-19T12:28:57.233Z,93598.03
2022-08-19T12:31:24.071Z,93589.88
2022-08-19T12:33:50.905Z,93584.66
2022-08-19T12:36:18.738Z,93570.22
2022-08-19T12:38:45.763Z,93579.16
2022-08-19T12:41:15.073Z,93577.47
2022-08-19T12:43:42.974Z,93583.06
2022-08-19T12:46:11.446Z,93601.16
2022-08-19T12:48:40.351Z,93596.94
2022-08-19T12:51:10.400Z,93599.94
2022-08-19T12:53:39.147Z,93596.94
2022-08-19T12:56:08.130Z,93604.78
2022-08-19T12:58:39.995Z,93604.84
2022-08-19T13:01:15.812Z,93596.72
2022-08-19T13:03:46.644Z,93585.97
2022-08-19T13:06:13.935Z,93588.34
2022-08-19T13:08:46.532Z,93579.13
2022-08-19T13:11:15.953Z,93573.81
2022-08-19T13:13:44.942Z,93570.81
2022-08-19T13:16:13.114Z,93567.88
2022-08-19T13:18:41.337Z,93575.97
2022-08-19T13:21:10.311Z,93577.63
2022-08-19T13:23:37.433Z,93576.09
2022-08-19T13:26:07.015Z,93566.13
2022-08-19T13:28:53.954Z,93579.59
2022-08-19T13:31:41.563Z,93573.44
2022-08-19T13:34:09.242Z,93582.31
2022-08-19T13:36:37.334Z,93590.56
2022-08-19T13:39:05.466Z,93601.81
2022-08-19T13:41:32.382Z,93607.88
2022-08-19T13:43:59.155Z,93621.38
2022-08-19T13:46:26.019Z,93630.09
2022-08-19T13:48:52.795Z,93652.47
2022-08-19T13:51:19.874Z,93655.69
2022-08-19T13:53:48.156Z,93668.28
2022-08-19T13:56:18.988Z,93680.31
2022-08-19T13:58:47.784Z,93678.66
2022-08-19T14:01:21.010Z,93678.06
2022-08-19T14:03:51.715Z,93661.72
2022-08-19T14:06:18.710Z,93652.28
2022-08-19T14:08:46.514Z,93678.00
2022-08-19T14:11:13.504Z,93676.38
2022-08-19T14:13:40.374Z,93682.72
2022-08-19T14:16:11.294Z,93677.50
2022-08-19T14:18:38.574Z,93685.25
2022-08-19T14:21:06.233Z,93678.22
2022-08-19T14:23:34.244Z,93693.16
2022-08-19T14:26:14.526Z,93716.31
2022-08-19T14:28:44.693Z,93728.06
2022-08-19T14:31:13.372Z,93724.00
2022-08-19T14:33:41.603Z,93730.25
2022-08-19T14:36:08.571Z,93728.91
2022-08-19T14:38:35.957Z,93744.13
2022-08-19T14:41:20.456Z,93748.97
2022-08-19T14:43:49.582Z,93754.44
2022-08-19T14:46:18.232Z,93746.38
2022-08-19T14:48:48.034Z,93733.84
2022-08-19T14:51:20.169Z,93710.53
2022-08-19T14:53:49.763Z,93714.13
2022-08-19T14:56:20.510Z,93712.66
2022-08-19T14:58:47.366Z,93692.72
2022-08-19T15:01:14.689Z,93677.09
2022-08-19T15:03:42.843Z,93667.63
2022-08-19T15:06:12.682Z,93646.22
2022-08-19T15:08:42.081Z,93634.63
2022-08-19T15:11:10.961Z,93666.84
2022-08-19T15:13:38.214Z,93674.31
2022-08-19T15:16:05.366Z,93664.28
2022-08-19T15:18:32.153Z,93669.06
2022-08-19T15:20:58.933Z,93689.00
2022-08-19T15:23:26.526Z,93696.94
2022-08-19T15:25:56.495Z,93698.94
2022-08-19T15:28:24.383Z,93694.25
2022-08-19T15:30:51.233Z,93689.59
2022-08-19T15:33:18.713Z,93687.59
2022-08-19T15:35:45.544Z,93692.06
2022-08-19T15:38:14.088Z,93682.53
2022-08-19T15:40:42.393Z,93687.31
2022-08-19T15:43:09.118Z,93670.94
2022-08-19T15:45:36.045Z,93652.94
2022-08-19T15:48:04.445Z,93640.03
2022-08-19T15:50:35.965Z,93631.66
2022-08-19T15:53:06.753Z,93620.94
2022-08-19T15:55:35.884Z,93612.13
2022-08-19T15:58:28.277Z,93610.91
2022-08-19T16:01:16.077Z,93608.66
2022-08-19T16:04:01.605Z,93608.72
2022-08-19T16:06:28.674Z,93608.00
2022-08-19T16:08:57.592Z,93605.88
2022-08-19T16:11:29.482Z,93615.41
2022-08-19T16:13:58.009Z,93611.47
2022-08-19T16:16:34.073Z,93616.28
2022-08-19T16:19:06.306Z,93626.16
2022-08-19T16:21:39.697Z,93629.28
2022-08-19T16:24:10.365Z,93623.03
2022-08-19T16:26:37.275Z,93622.38
2022-08-19T16:29:09.034Z,93631.06
2022-08-19T16:31:39.012Z,93634.47
2022-08-19T16:34:06.514Z,93644.22
2022-08-19T16:36:33.570Z,93641.66
2022-08-19T16:39:01.034Z,93651.38
2022-08-19T16:41:29.244Z,93659.09
2022-08-19T16:43:56.214Z,93662.53
2022-08-19T16:46:23.656Z,93669.78
2022-08-19T16:48:54.145Z,93678.38
2022-08-19T16:51:22.931Z,93680.78
2022-08-19T16:53:52.615Z,93686.53
2022-08-19T16:56:20.517Z,93687.13
2022-08-19T16:58:48.373Z,93690.28
2022-08-19T17:01:15.175Z,93689.44
2022-08-19T17:03:42.173Z,93692.41
2022-08-19T17:06:21.010Z,93686.63
2022-08-19T17:08:52.363Z,93684.06
2022-08-19T17:11:20.254Z,93696.69
2022-08-19T17:13:47.908Z,93694.16
2022-08-19T17:16:15.880Z,93693.09
2022-08-19T17:18:42.716Z,93693.84
2022-08-19T17:21:09.716Z,93697.38
2022-08-19T17:23:42.186Z,93698.59
2022-08-19T17:26:17.171Z,93699.53
2022-08-19T17:28:48.100Z,93694.31
2022-08-19T17:31:15.283Z,93699.03
2022-08-19T17:33:42.005Z,93687.97
2022-08-19T17:36:09.012Z,93684.31
2022-08-19T17:38:36.014Z,93678.56
2022-08-19T17:41:05.783Z,93680.25
2022-08-19T17:43:37.056Z,93682.56
2022-08-19T17:46:05.785Z,93687.59
2022-08-19T17:48:40.933Z,93698.38
2022-08-19T17:51:22.461Z,93688.72
2022-08-19T17:53:51.064Z,93709.13
2022-08-19T17:56:18.707Z,93714.06
2022-08-19T17:58:51.999Z,93707.19
2022-08-19T18:01:34.150Z,93707.91
2022-08-19T18:04:17.371Z,93698.81
2022-08-19T18:06:46.606Z,93703.00
2022-08-19T18:09:24.897Z,93711.97
2022-08-19T18:11:53.666Z,93719.31
2022-08-19T18:14:32.968Z,93714.66
2022-08-19T18:17:12.884Z,93723.09
2022-08-19T18:19:43.356Z,93723.72
2022-08-19T18:22:13.054Z,93731.06
2022-08-19T18:24:42.125Z,93739.66
2022-08-19T18:27:10.054Z,93746.59
2022-08-19T18:29:38.506Z,93745.31
2022-08-19T18:32:06.915Z,93750.56
2022-08-19T18:34:36.607Z,93755.53
2022-08-19T18:37:03.374Z,93761.13
2022-08-19T18:39:48.757Z,93775.03
2022-08-19T18:42:34.904Z,93785.56
2022-08-19T18:45:20.410Z,93792.63
2022-08-19T18:48:05.665Z,93806.31
2022-08-19T18:50:33.514Z,93809.75
2022-08-19T18:53:00.305Z,93807.13
2022-08-19T18:55:28.427Z,93811.09
2022-08-19T18:57:55.513Z,93814.25
2022-08-19T19:00:22.374Z,93811.63
2022-08-19T19:02:50.186Z,93816.06
2022-08-19T19:05:16.934Z,93816.66
2022-08-19T19:07:44.018Z,93820.06
2022-08-19T19:10:10.887Z,93821.09
2022-08-19T19:12:41.659Z,93814.81
2022-08-19T19:15:08.953Z,93802.47
2022-08-19T19:17:35.643Z,93809.56
2022-08-19T19:20:03.215Z,93812.44
2022-08-19T19:22:30.116Z,93814.56
2022-08-19T19:24:59.144Z,93822.94
2022-08-19T19:27:26.314Z,93825.34
2022-08-19T19:29:53.254Z,93821.63
2022-08-19T19:32:27.004Z,93816.91
2022-08-19T19:34:54.274Z,93824.25
2022-08-19T19:37:21.167Z,93824.78
2022-08-19T19:39:48.303Z,93825.06
2022-08-19T19:42:21.309Z,93818.50
2022-08-19T19:44:50.567Z,93820.88
2022-08-19T19:47:19.067Z,93825.63
2022-08-19T19:50:10.719Z,93825.06
2022-08-19T19:52:33.562Z,93829.53
2022-08-19T19:55:01.449Z,93837.91
2022-08-19T19:57:30.387Z,93823.75
2022-08-19T19:59:57.103Z,93834.78
2022-08-19T20:02:25.354Z,93848.41
2022-08-19T20:04:54.046Z,93841.31
2022-08-19T20:07:40.673Z,93849.47
2022-08-19T20:10:07.578Z,93857.06
2022-08-19T20:12:34.853Z,93846.31
2022-08-19T20:15:01.543Z,93858.38
2022-08-19T20:17:28.154Z,93867.56
2022-08-19T20:19:57.587Z,93871.25
2022-08-19T20:22:25.708Z,93873.09
2022-08-19T20:24:53.861Z,93881.22
2022-08-19T20:27:23.571Z,93898.78
2022-08-19T20:29:52.547Z,93887.75
2022-08-19T20:32:19.177Z,93923.94
2022-08-19T20:34:49.124Z,93947.03
2022-08-19T20:37:15.887Z,93954.88
2022-08-19T20:39:42.648Z,93948.59
2022-08-19T20:42:09.324Z,93940.72
2022-08-19T20:44:36.191Z,93933.88
2022-08-19T20:47:04.110Z,93935.94
2022-08-19T20:49:31.514Z,93939.63
2022-08-19T20:51:58.577Z,93931.78
2022-08-19T20:54:26.192Z,93919.22
2022-08-19T20:56:53.281Z,93923.38
2022-08-19T20:59:20.965Z,93919.44
2022-08-19T21:01:48.436Z,93918.09
2022-08-19T21:04:15.081Z,93927.25
2022-08-19T21:06:45.382Z,93927.28
2022-08-19T21:09:13.615Z,93934.31
2022-08-19T21:11:40.344Z,93931.44
2022-08-19T21:14:07.015Z,93934.06
2022-08-19T21:16:33.967Z,93951.91
2022-08-19T21:19:01.194Z,93935.91
2022-08-19T21:21:28.529Z,93934.88
2022-08-19T21:23:55.194Z,93942.47
2022-08-19T21:26:21.905Z,93949.03
2022-08-19T21:28:48.544Z,93956.06
2022-08-19T21:31:17.895Z,93955.78
2022-08-19T21:33:45.065Z,93948.72
2022-08-19T21:36:11.782Z,93944.47
2022-08-19T21:38:38.613Z,93947.84
2022-08-19T21:41:06.491Z,93935.28
2022-08-19T21:43:34.901Z,93931.44
2022-08-19T21:46:01.889Z,93931.94
2022-08-19T21:48:28.608Z,93924.81
2022-08-19T21:50:55.250Z,93908.47
2022-08-19T21:53:22.772Z,93929.00
2022-08-19T21:55:53.456Z,93927.38
2022-08-19T21:58:28.323Z,93912.16
2022-08-19T22:01:01.772Z,93917.44
2022-08-19T22:03:28.923Z,93912.25
2022-08-19T22:05:55.662Z,93919.13
2022-08-19T22:08:22.265Z,93924.34
2022-08-19T22:10:49.853Z,93917.81
2022-08-19T22:13:18.291Z,93914.66
2022-08-19T22:15:46.294Z,93910.72
2022-08-19T22:18:13.780Z,93913.59
2022-08-19T22:20:40.715Z,93914.38
2022-08-19T22:23:07.936Z,93925.09
2022-08-19T22:25:40.844Z,93925.28
2022-08-19T22:28:10.888Z,93930.06
2022-08-19T22:30:38.965Z,93935.56
2022-08-19T22:33:12.561Z,93942.63
2022-08-19T22:35:41.515Z,93937.41
2022-08-19T22:38:10.275Z,93938.97
2022-08-19T22:40:39.722Z,93931.34
2022-08-19T22:43:30.072Z,93939.47
2022-08-19T22:45:58.156Z,93938.94
2022-08-19T22:48:28.097Z,93947.00
2022-08-19T22:51:14.286Z,93939.34
2022-08-19T22:53:45.035Z,93932.81
2022-08-19T22:56:15.311Z,93925.47
2022-08-19T22:58:43.425Z,93916.31
2022-08-19T23:01:23.114Z,93919.47
2022-08-19T23:03:56.396Z,93930.47
2022-08-19T23:06:23.311Z,93925.72
2022-08-19T23:09:01.143Z,93917.88
2022-08-19T23:11:27.944Z,93921.16
2022-08-19T23:13:54.730Z,93929.22
2022-08-19T23:16:21.534Z,93909.88
2022-08-19T23:18:48.375Z,93893.63
2022-08-19T23:21:15.094Z,93902.84
2022-08-19T23:23:41.843Z,93898.34
2022-08-19T23:26:10.421Z,93895.72
2022-08-19T23:28:57.424Z,93898.03
2022-08-19T23:31:26.267Z,93882.34
2022-08-19T23:33:53.557Z,93878.97
2022-08-19T23:36:20.651Z,93887.78
2022-08-19T23:38:49.034Z,93896.44
2022-08-19T23:41:18.001Z,93898.31
2022-08-19T23:43:45.098Z,93893.63
2022-08-19T23:46:14.159Z,93881.91
2022-08-19T23:48:55.681Z,93859.91
2022-08-19T23:51:22.513Z,93869.38
2022-08-19T23:53:49.372Z,93877.53
2022-08-19T23:56:16.144Z,93871.78
2022-08-19T23:58:42.926Z,93876.44
